sensor_id;sensor_type;location;lat;lon;timestamp;P1;durP1;ratioP1;P2;durP2;ratioP2
21987;SDS011;11158;53.404;-1.510;2023-03-11T00:02:10;4.00;;;2.33;;
21987;SDS011;11158;53.404;-1.510;2023-03-11T00:04:36;5.18;;;4.03;;
21987;SDS011;11158;53.404;-1.510;2023-03-11T00:07:04;5.68;;;2.47;;
21987;SDS011;11158;53.404;-1.510;2023-03-11T00:09:30;6.97;;;2.08;;
21987;SDS011;11158;53.404;-1.510;2023-03-11T00:11:56;7.50;;;2.58;;
21987;SDS011;11158;53.404;-1.510;2023-03-11T00:14:22;5.97;;;2.80;;
21987;SDS011;11158;53.404;-1.510;2023-03-11T00:16:47;5.82;;;2.88;;
21987;SDS011;11158;53.404;-1.510;2023-03-11T00:19:13;6.90;;;2.85;;
21987;SDS011;11158;53.404;-1.510;2023-03-11T00:21:38;7.22;;;2.70;;
21987;SDS011;11158;53.404;-1.510;2023-03-11T00:24:04;4.05;;;2.65;;
21987;SDS011;11158;53.404;-1.510;2023-03-11T00:26:30;4.25;;;2.40;;
21987;SDS011;11158;53.404;-1.510;2023-03-11T00:28:55;3.85;;;2.45;;
21987;SDS011;11158;53.404;-1.510;2023-03-11T00:31:21;3.60;;;2.28;;
21987;SDS011;11158;53.404;-1.510;2023-03-11T00:33:47;4.07;;;2.58;;
21987;SDS011;11158;53.404;-1.510;2023-03-11T00:36:29;4.47;;;2.40;;
21987;SDS011;11158;53.404;-1.510;2023-03-11T00:38:56;7.70;;;2.30;;
21987;SDS011;11158;53.404;-1.510;2023-03-11T00:41:22;3.80;;;2.17;;
21987;SDS011;11158;53.404;-1.510;2023-03-11T00:43:48;2.72;;;1.95;;
21987;SDS011;11158;53.404;-1.510;2023-03-11T00:46:13;4.50;;;2.03;;
21987;SDS011;11158;53.404;-1.510;2023-03-11T00:48:39;6.50;;;2.33;;
21987;SDS011;11158;53.404;-1.510;2023-03-11T00:51:10;6.28;;;2.65;;
21987;SDS011;11158;53.404;-1.510;2023-03-11T00:53:40;2.95;;;2.53;;
21987;SDS011;11158;53.404;-1.510;2023-03-11T00:56:10;3.03;;;2.10;;
21987;SDS011;11158;53.404;-1.510;2023-03-11T00:58:37;5.63;;;2.50;;
21987;SDS011;11158;53.404;-1.510;2023-03-11T01:01:14;2.78;;;1.98;;
21987;SDS011;11158;53.404;-1.510;2023-03-11T01:03:42;2.72;;;2.08;;
21987;SDS011;11158;53.404;-1.510;2023-03-11T01:06:08;4.18;;;2.63;;
21987;SDS011;11158;53.404;-1.510;2023-03-11T01:08:34;4.97;;;2.47;;
21987;SDS011;11158;53.404;-1.510;2023-03-11T01:11:00;6.15;;;2.50;;
21987;SDS011;11158;53.404;-1.510;2023-03-11T01:13:28;4.45;;;2.20;;
21987;SDS011;11158;53.404;-1.510;2023-03-11T01:15:54;3.10;;;2.20;;
21987;SDS011;11158;53.404;-1.510;2023-03-11T01:18:28;3.90;;;2.33;;
21987;SDS011;11158;53.404;-1.510;2023-03-11T01:20:54;4.22;;;2.40;;
21987;SDS011;11158;53.404;-1.510;2023-03-11T01:23:20;5.15;;;2.58;;
21987;SDS011;11158;53.404;-1.510;2023-03-11T01:25:47;4.82;;;2.15;;
21987;SDS011;11158;53.404;-1.510;2023-03-11T01:28:12;3.97;;;2.10;;
21987;SDS011;11158;53.404;-1.510;2023-03-11T01:30:39;3.63;;;2.20;;
21987;SDS011;11158;53.404;-1.510;2023-03-11T01:33:05;5.28;;;2.22;;
21987;SDS011;11158;53.404;-1.510;2023-03-11T01:35:32;2.83;;;2.45;;
21987;SDS011;11158;53.404;-1.510;2023-03-11T01:37:59;4.40;;;2.38;;
21987;SDS011;11158;53.404;-1.510;2023-03-11T01:40:33;5.95;;;2.65;;
21987;SDS011;11158;53.404;-1.510;2023-03-11T01:43:01;6.90;;;2.90;;
21987;SDS011;11158;53.404;-1.510;2023-03-11T01:48:15;2.92;;;2.55;;
21987;SDS011;11158;53.404;-1.510;2023-03-11T01:50:43;5.95;;;2.90;;
21987;SDS011;11158;53.404;-1.510;2023-03-11T01:53:10;3.22;;;2.25;;
21987;SDS011;11158;53.404;-1.510;2023-03-11T01:55:38;5.90;;;2.38;;
21987;SDS011;11158;53.404;-1.510;2023-03-11T01:58:05;3.50;;;2.42;;
21987;SDS011;11158;53.404;-1.510;2023-03-11T02:00:33;7.55;;;2.70;;
21987;SDS011;11158;53.404;-1.510;2023-03-11T02:03:01;4.93;;;2.45;;
21987;SDS011;11158;53.404;-1.510;2023-03-11T02:05:33;7.85;;;2.80;;
21987;SDS011;11158;53.404;-1.510;2023-03-11T02:07:59;6.40;;;2.40;;
21987;SDS011;11158;53.404;-1.510;2023-03-11T02:10:25;4.78;;;2.63;;
21987;SDS011;11158;53.404;-1.510;2023-03-11T02:12:50;4.68;;;2.60;;
21987;SDS011;11158;53.404;-1.510;2023-03-11T02:15:17;5.38;;;2.30;;
21987;SDS011;11158;53.404;-1.510;2023-03-11T02:17:42;4.43;;;2.35;;
21987;SDS011;11158;53.404;-1.510;2023-03-11T02:28:30;5.40;;;3.42;;
21987;SDS011;11158;53.404;-1.510;2023-03-11T02:30:59;5.13;;;3.00;;
21987;SDS011;11158;53.404;-1.510;2023-03-11T02:33:25;7.68;;;3.05;;
21987;SDS011;11158;53.404;-1.510;2023-03-11T02:35:55;2.58;;;2.30;;
21987;SDS011;11158;53.404;-1.510;2023-03-11T02:38:21;3.92;;;2.60;;
21987;SDS011;11158;53.404;-1.510;2023-03-11T02:40:49;6.78;;;2.95;;
21987;SDS011;11158;53.404;-1.510;2023-03-11T02:43:17;3.08;;;2.78;;
21987;SDS011;11158;53.404;-1.510;2023-03-11T02:45:47;5.13;;;3.17;;
21987;SDS011;11158;53.404;-1.510;2023-03-11T02:48:13;9.27;;;3.22;;
21987;SDS011;11158;53.404;-1.510;2023-03-11T02:50:40;5.28;;;2.53;;
21987;SDS011;11158;53.404;-1.510;2023-03-11T02:53:07;7.70;;;2.35;;
21987;SDS011;11158;53.404;-1.510;2023-03-11T02:55:32;3.10;;;2.38;;
21987;SDS011;11158;53.404;-1.510;2023-03-11T02:57:58;5.30;;;2.50;;
21987;SDS011;11158;53.404;-1.510;2023-03-11T03:00:24;7.05;;;2.70;;
21987;SDS011;11158;53.404;-1.510;2023-03-11T03:02:49;5.28;;;2.67;;
21987;SDS011;11158;53.404;-1.510;2023-03-11T03:05:16;7.93;;;2.80;;
21987;SDS011;11158;53.404;-1.510;2023-03-11T03:07:45;7.57;;;2.90;;
21987;SDS011;11158;53.404;-1.510;2023-03-11T03:10:14;3.33;;;2.45;;
21987;SDS011;11158;53.404;-1.510;2023-03-11T03:12:40;4.22;;;2.33;;
21987;SDS011;11158;53.404;-1.510;2023-03-11T03:15:06;5.45;;;2.60;;
21987;SDS011;11158;53.404;-1.510;2023-03-11T03:17:33;4.85;;;2.55;;
21987;SDS011;11158;53.404;-1.510;2023-03-11T03:19:58;4.45;;;2.50;;
21987;SDS011;11158;53.404;-1.510;2023-03-11T03:22:24;4.80;;;3.10;;
21987;SDS011;11158;53.404;-1.510;2023-03-11T03:24:51;6.10;;;2.47;;
21987;SDS011;11158;53.404;-1.510;2023-03-11T03:27:17;5.43;;;2.75;;
21987;SDS011;11158;53.404;-1.510;2023-03-11T03:29:43;4.65;;;2.92;;
21987;SDS011;11158;53.404;-1.510;2023-03-11T03:32:09;3.03;;;2.20;;
21987;SDS011;11158;53.404;-1.510;2023-03-11T03:34:34;7.97;;;2.50;;
21987;SDS011;11158;53.404;-1.510;2023-03-11T03:37:00;3.33;;;2.05;;
21987;SDS011;11158;53.404;-1.510;2023-03-11T03:39:26;3.03;;;2.30;;
21987;SDS011;11158;53.404;-1.510;2023-03-11T03:41:51;4.20;;;2.38;;
21987;SDS011;11158;53.404;-1.510;2023-03-11T03:44:17;6.25;;;2.45;;
21987;SDS011;11158;53.404;-1.510;2023-03-11T03:46:42;3.65;;;2.72;;
21987;SDS011;11158;53.404;-1.510;2023-03-11T03:49:08;5.40;;;3.25;;
21987;SDS011;11158;53.404;-1.510;2023-03-11T03:51:34;4.00;;;2.67;;
21987;SDS011;11158;53.404;-1.510;2023-03-11T03:53:59;4.47;;;2.92;;
21987;SDS011;11158;53.404;-1.510;2023-03-11T03:56:25;4.22;;;2.25;;
21987;SDS011;11158;53.404;-1.510;2023-03-11T03:58:51;5.40;;;2.85;;
21987;SDS011;11158;53.404;-1.510;2023-03-11T04:01:17;5.85;;;2.47;;
21987;SDS011;11158;53.404;-1.510;2023-03-11T04:03:43;9.68;;;2.70;;
21987;SDS011;11158;53.404;-1.510;2023-03-11T04:06:10;3.63;;;2.40;;
21987;SDS011;11158;53.404;-1.510;2023-03-11T04:08:42;4.20;;;2.72;;
21987;SDS011;11158;53.404;-1.510;2023-03-11T04:11:08;4.13;;;2.90;;
21987;SDS011;11158;53.404;-1.510;2023-03-11T04:13:33;3.97;;;2.50;;
21987;SDS011;11158;53.404;-1.510;2023-03-11T04:16:00;7.47;;;2.85;;
21987;SDS011;11158;53.404;-1.510;2023-03-11T04:18:28;6.07;;;2.70;;
21987;SDS011;11158;53.404;-1.510;2023-03-11T04:20:53;4.57;;;2.47;;
21987;SDS011;11158;53.404;-1.510;2023-03-11T04:23:19;4.38;;;2.60;;
21987;SDS011;11158;53.404;-1.510;2023-03-11T04:25:44;3.97;;;3.13;;
21987;SDS011;11158;53.404;-1.510;2023-03-11T04:28:10;2.90;;;2.70;;
21987;SDS011;11158;53.404;-1.510;2023-03-11T04:30:36;7.03;;;3.33;;
21987;SDS011;11158;53.404;-1.510;2023-03-11T04:33:01;11.93;;;2.92;;
21987;SDS011;11158;53.404;-1.510;2023-03-11T04:35:27;5.55;;;3.38;;
21987;SDS011;11158;53.404;-1.510;2023-03-11T04:37:53;6.40;;;3.13;;
21987;SDS011;11158;53.404;-1.510;2023-03-11T04:40:18;10.43;;;5.10;;
21987;SDS011;11158;53.404;-1.510;2023-03-11T04:42:44;3.55;;;2.30;;
21987;SDS011;11158;53.404;-1.510;2023-03-11T04:45:10;6.30;;;2.63;;
21987;SDS011;11158;53.404;-1.510;2023-03-11T04:47:35;3.63;;;2.45;;
21987;SDS011;11158;53.404;-1.510;2023-03-11T04:50:01;3.15;;;2.63;;
21987;SDS011;11158;53.404;-1.510;2023-03-11T04:52:27;7.32;;;2.83;;
21987;SDS011;11158;53.404;-1.510;2023-03-11T04:54:53;3.58;;;2.75;;
21987;SDS011;11158;53.404;-1.510;2023-03-11T04:57:19;7.63;;;3.22;;
21987;SDS011;11158;53.404;-1.510;2023-03-11T04:59:44;5.57;;;2.50;;
21987;SDS011;11158;53.404;-1.510;2023-03-11T05:02:10;5.05;;;2.45;;
21987;SDS011;11158;53.404;-1.510;2023-03-11T05:04:35;4.78;;;2.80;;
21987;SDS011;11158;53.404;-1.510;2023-03-11T05:07:01;4.10;;;2.60;;
21987;SDS011;11158;53.404;-1.510;2023-03-11T05:09:27;3.85;;;2.63;;
21987;SDS011;11158;53.404;-1.510;2023-03-11T05:11:53;6.53;;;3.10;;
21987;SDS011;11158;53.404;-1.510;2023-03-11T05:14:18;6.88;;;2.80;;
21987;SDS011;11158;53.404;-1.510;2023-03-11T05:16:44;8.10;;;2.80;;
21987;SDS011;11158;53.404;-1.510;2023-03-11T05:19:09;6.10;;;3.17;;
21987;SDS011;11158;53.404;-1.510;2023-03-11T05:21:53;3.30;;;3.00;;
21987;SDS011;11158;53.404;-1.510;2023-03-11T05:24:19;2.90;;;2.60;;
21987;SDS011;11158;53.404;-1.510;2023-03-11T05:26:45;7.45;;;3.10;;
21987;SDS011;11158;53.404;-1.510;2023-03-11T05:29:10;6.90;;;3.10;;
21987;SDS011;11158;53.404;-1.510;2023-03-11T05:31:36;3.58;;;2.92;;
21987;SDS011;11158;53.404;-1.510;2023-03-11T05:34:03;4.05;;;3.63;;
21987;SDS011;11158;53.404;-1.510;2023-03-11T05:36:28;6.55;;;2.80;;
21987;SDS011;11158;53.404;-1.510;2023-03-11T05:38:54;5.82;;;2.70;;
21987;SDS011;11158;53.404;-1.510;2023-03-11T05:41:19;6.05;;;2.97;;
21987;SDS011;11158;53.404;-1.510;2023-03-11T05:43:45;4.82;;;2.85;;
21987;SDS011;11158;53.404;-1.510;2023-03-11T05:46:11;6.53;;;3.58;;
21987;SDS011;11158;53.404;-1.510;2023-03-11T05:48:37;4.13;;;3.08;;
21987;SDS011;11158;53.404;-1.510;2023-03-11T05:51:06;6.50;;;2.65;;
21987;SDS011;11158;53.404;-1.510;2023-03-11T05:53:33;5.63;;;2.83;;
21987;SDS011;11158;53.404;-1.510;2023-03-11T05:55:59;7.55;;;2.92;;
21987;SDS011;11158;53.404;-1.510;2023-03-11T05:58:25;4.82;;;2.95;;
21987;SDS011;11158;53.404;-1.510;2023-03-11T06:00:51;5.13;;;2.90;;
21987;SDS011;11158;53.404;-1.510;2023-03-11T06:03:17;6.47;;;3.90;;
21987;SDS011;11158;53.404;-1.510;2023-03-11T06:05:44;5.75;;;2.90;;
21987;SDS011;11158;53.404;-1.510;2023-03-11T06:08:10;5.15;;;2.97;;
21987;SDS011;11158;53.404;-1.510;2023-03-11T06:10:35;7.78;;;3.67;;
21987;SDS011;11158;53.404;-1.510;2023-03-11T06:13:01;8.57;;;3.83;;
21987;SDS011;11158;53.404;-1.510;2023-03-11T06:15:27;6.32;;;3.40;;
21987;SDS011;11158;53.404;-1.510;2023-03-11T06:17:52;3.47;;;3.10;;
21987;SDS011;11158;53.404;-1.510;2023-03-11T06:20:18;3.92;;;3.00;;
21987;SDS011;11158;53.404;-1.510;2023-03-11T06:22:43;6.43;;;2.92;;
21987;SDS011;11158;53.404;-1.510;2023-03-11T06:25:12;4.63;;;3.30;;
21987;SDS011;11158;53.404;-1.510;2023-03-11T06:27:37;4.38;;;2.97;;
21987;SDS011;11158;53.404;-1.510;2023-03-11T06:30:03;5.05;;;3.42;;
21987;SDS011;11158;53.404;-1.510;2023-03-11T06:32:29;4.82;;;3.47;;
21987;SDS011;11158;53.404;-1.510;2023-03-11T06:34:55;5.80;;;3.28;;
21987;SDS011;11158;53.404;-1.510;2023-03-11T06:37:20;6.45;;;3.42;;
21987;SDS011;11158;53.404;-1.510;2023-03-11T06:39:50;4.68;;;3.42;;
21987;SDS011;11158;53.404;-1.510;2023-03-11T06:42:16;6.13;;;2.83;;
21987;SDS011;11158;53.404;-1.510;2023-03-11T06:44:42;5.63;;;3.45;;
21987;SDS011;11158;53.404;-1.510;2023-03-11T06:47:07;9.05;;;4.32;;
21987;SDS011;11158;53.404;-1.510;2023-03-11T06:49:33;7.30;;;5.10;;
21987;SDS011;11158;53.404;-1.510;2023-03-11T06:51:59;5.07;;;3.17;;
21987;SDS011;11158;53.404;-1.510;2023-03-11T06:54:24;4.40;;;3.45;;
21987;SDS011;11158;53.404;-1.510;2023-03-11T06:56:50;9.23;;;3.50;;
21987;SDS011;11158;53.404;-1.510;2023-03-11T06:59:15;5.82;;;3.20;;
21987;SDS011;11158;53.404;-1.510;2023-03-11T07:01:41;5.30;;;3.28;;
21987;SDS011;11158;53.404;-1.510;2023-03-11T07:04:07;6.20;;;3.60;;
21987;SDS011;11158;53.404;-1.510;2023-03-11T07:06:34;6.68;;;3.67;;
21987;SDS011;11158;53.404;-1.510;2023-03-11T07:08:59;9.55;;;3.97;;
21987;SDS011;11158;53.404;-1.510;2023-03-11T07:11:26;7.85;;;4.38;;
21987;SDS011;11158;53.404;-1.510;2023-03-11T07:13:52;7.63;;;4.80;;
21987;SDS011;11158;53.404;-1.510;2023-03-11T07:16:23;8.10;;;4.95;;
21987;SDS011;11158;53.404;-1.510;2023-03-11T07:18:50;6.25;;;4.68;;
21987;SDS011;11158;53.404;-1.510;2023-03-11T07:21:19;7.35;;;4.13;;
21987;SDS011;11158;53.404;-1.510;2023-03-11T07:23:47;5.93;;;3.58;;
21987;SDS011;11158;53.404;-1.510;2023-03-11T07:26:16;5.18;;;2.80;;
21987;SDS011;11158;53.404;-1.510;2023-03-11T07:28:42;5.28;;;2.90;;
21987;SDS011;11158;53.404;-1.510;2023-03-11T07:31:13;5.50;;;2.67;;
21987;SDS011;11158;53.404;-1.510;2023-03-11T07:33:42;7.07;;;3.33;;
21987;SDS011;11158;53.404;-1.510;2023-03-11T07:36:09;3.60;;;2.50;;
21987;SDS011;11158;53.404;-1.510;2023-03-11T07:38:36;5.65;;;2.80;;
21987;SDS011;11158;53.404;-1.510;2023-03-11T07:41:03;4.82;;;2.90;;
21987;SDS011;11158;53.404;-1.510;2023-03-11T07:43:29;6.88;;;2.67;;
21987;SDS011;11158;53.404;-1.510;2023-03-11T07:46:28;7.38;;;3.10;;
21987;SDS011;11158;53.404;-1.510;2023-03-11T07:48:47;7.00;;;2.53;;
21987;SDS011;11158;53.404;-1.510;2023-03-11T07:51:15;3.85;;;2.20;;
21987;SDS011;11158;53.404;-1.510;2023-03-11T07:53:45;3.15;;;2.03;;
21987;SDS011;11158;53.404;-1.510;2023-03-11T07:56:12;6.05;;;2.10;;
21987;SDS011;11158;53.404;-1.510;2023-03-11T07:58:39;7.15;;;2.22;;
21987;SDS011;11158;53.404;-1.510;2023-03-11T08:01:15;3.28;;;2.33;;
21987;SDS011;11158;53.404;-1.510;2023-03-11T08:03:43;4.88;;;2.15;;
21987;SDS011;11158;53.404;-1.510;2023-03-11T08:06:20;5.63;;;2.38;;
21987;SDS011;11158;53.404;-1.510;2023-03-11T08:08:48;6.45;;;2.58;;
21987;SDS011;11158;53.404;-1.510;2023-03-11T08:11:14;3.58;;;2.10;;
21987;SDS011;11158;53.404;-1.510;2023-03-11T08:13:41;6.03;;;2.60;;
21987;SDS011;11158;53.404;-1.510;2023-03-11T08:16:08;7.70;;;2.63;;
21987;SDS011;11158;53.404;-1.510;2023-03-11T08:18:34;4.72;;;3.53;;
21987;SDS011;11158;53.404;-1.510;2023-03-11T08:21:04;3.72;;;2.20;;
21987;SDS011;11158;53.404;-1.510;2023-03-11T08:23:31;2.35;;;1.83;;
21987;SDS011;11158;53.404;-1.510;2023-03-11T08:25:57;5.57;;;2.13;;
21987;SDS011;11158;53.404;-1.510;2023-03-11T08:28:23;3.75;;;2.30;;
21987;SDS011;11158;53.404;-1.510;2023-03-11T08:30:49;3.25;;;2.10;;
21987;SDS011;11158;53.404;-1.510;2023-03-11T08:33:14;5.75;;;1.80;;
21987;SDS011;11158;53.404;-1.510;2023-03-11T08:35:40;6.50;;;2.45;;
21987;SDS011;11158;53.404;-1.510;2023-03-11T08:38:05;5.60;;;2.10;;
21987;SDS011;11158;53.404;-1.510;2023-03-11T08:40:31;5.93;;;2.00;;
21987;SDS011;11158;53.404;-1.510;2023-03-11T08:42:57;5.45;;;1.63;;
21987;SDS011;11158;53.404;-1.510;2023-03-11T08:45:22;5.47;;;1.40;;
21987;SDS011;11158;53.404;-1.510;2023-03-11T08:47:48;4.05;;;1.67;;
21987;SDS011;11158;53.404;-1.510;2023-03-11T08:50:15;4.85;;;1.83;;
21987;SDS011;11158;53.404;-1.510;2023-03-11T08:52:43;3.63;;;1.70;;
21987;SDS011;11158;53.404;-1.510;2023-03-11T08:55:13;6.07;;;1.92;;
21987;SDS011;11158;53.404;-1.510;2023-03-11T08:57:40;9.80;;;1.58;;
21987;SDS011;11158;53.404;-1.510;2023-03-11T09:00:06;7.95;;;1.98;;
21987;SDS011;11158;53.404;-1.510;2023-03-11T09:02:33;4.82;;;1.77;;
21987;SDS011;11158;53.404;-1.510;2023-03-11T09:04:59;4.72;;;2.17;;
21987;SDS011;11158;53.404;-1.510;2023-03-11T09:07:24;4.55;;;1.50;;
21987;SDS011;11158;53.404;-1.510;2023-03-11T09:09:50;3.67;;;1.90;;
21987;SDS011;11158;53.404;-1.510;2023-03-11T09:12:16;2.67;;;1.83;;
21987;SDS011;11158;53.404;-1.510;2023-03-11T09:14:42;6.32;;;1.92;;
21987;SDS011;11158;53.404;-1.510;2023-03-11T09:17:08;7.75;;;1.92;;
21987;SDS011;11158;53.404;-1.510;2023-03-11T09:19:34;3.53;;;1.50;;
21987;SDS011;11158;53.404;-1.510;2023-03-11T09:22:00;4.28;;;1.95;;
21987;SDS011;11158;53.404;-1.510;2023-03-11T09:24:26;3.42;;;1.65;;
21987;SDS011;11158;53.404;-1.510;2023-03-11T09:26:52;5.13;;;1.50;;
21987;SDS011;11158;53.404;-1.510;2023-03-11T09:29:18;6.45;;;1.60;;
21987;SDS011;11158;53.404;-1.510;2023-03-11T09:31:44;3.60;;;1.88;;
21987;SDS011;11158;53.404;-1.510;2023-03-11T09:34:10;6.72;;;1.95;;
21987;SDS011;11158;53.404;-1.510;2023-03-11T09:36:39;6.95;;;1.40;;
21987;SDS011;11158;53.404;-1.510;2023-03-11T09:39:05;4.10;;;1.92;;
21987;SDS011;11158;53.404;-1.510;2023-03-11T09:41:41;5.97;;;1.80;;
21987;SDS011;11158;53.404;-1.510;2023-03-11T09:54:54;4.45;;;1.88;;
21987;SDS011;11158;53.404;-1.510;2023-03-11T09:57:23;3.67;;;1.52;;
21987;SDS011;11158;53.404;-1.510;2023-03-11T09:59:52;3.50;;;1.52;;
21987;SDS011;11158;53.404;-1.510;2023-03-11T10:02:20;5.90;;;1.50;;
21987;SDS011;11158;53.404;-1.510;2023-03-11T10:07:28;5.78;;;1.63;;
21987;SDS011;11158;53.404;-1.510;2023-03-11T10:09:59;3.88;;;1.70;;
21987;SDS011;11158;53.404;-1.510;2023-03-11T10:21:07;3.38;;;1.02;;
21987;SDS011;11158;53.404;-1.510;2023-03-11T10:26:32;2.03;;;1.08;;
21987;SDS011;11158;53.404;-1.510;2023-03-11T10:31:54;6.40;;;1.10;;
21987;SDS011;11158;53.404;-1.510;2023-03-11T10:34:27;1.73;;;1.05;;
21987;SDS011;11158;53.404;-1.510;2023-03-11T10:37:10;3.22;;;1.30;;
21987;SDS011;11158;53.404;-1.510;2023-03-11T10:39:42;2.45;;;1.08;;
21987;SDS011;11158;53.404;-1.510;2023-03-11T10:42:12;2.10;;;1.08;;
21987;SDS011;11158;53.404;-1.510;2023-03-11T10:44:41;0.90;;;0.88;;
21987;SDS011;11158;53.404;-1.510;2023-03-11T10:47:19;1.00;;;0.90;;
21987;SDS011;11158;53.404;-1.510;2023-03-11T10:49:47;6.25;;;1.50;;
21987;SDS011;11158;53.404;-1.510;2023-03-11T10:52:13;2.67;;;0.95;;
21987;SDS011;11158;53.404;-1.510;2023-03-11T10:54:40;4.28;;;1.10;;
21987;SDS011;11158;53.404;-1.510;2023-03-11T10:59:54;1.38;;;1.15;;
21987;SDS011;11158;53.404;-1.510;2023-03-11T11:02:22;2.10;;;1.30;;
21987;SDS011;11158;53.404;-1.510;2023-03-11T11:07:32;3.20;;;1.35;;
21987;SDS011;11158;53.404;-1.510;2023-03-11T11:12:52;4.50;;;1.55;;
21987;SDS011;11158;53.404;-1.510;2023-03-11T11:17:47;7.45;;;1.77;;
21987;SDS011;11158;53.404;-1.510;2023-03-11T11:20:15;2.58;;;1.20;;
21987;SDS011;11158;53.404;-1.510;2023-03-11T11:22:56;5.07;;;1.58;;
21987;SDS011;11158;53.404;-1.510;2023-03-11T11:28:17;1.98;;;1.10;;
21987;SDS011;11158;53.404;-1.510;2023-03-11T11:31:04;2.50;;;1.17;;
21987;SDS011;11158;53.404;-1.510;2023-03-11T11:33:31;2.97;;;1.50;;
21987;SDS011;11158;53.404;-1.510;2023-03-11T11:36:03;2.58;;;1.40;;
21987;SDS011;11158;53.404;-1.510;2023-03-11T11:38:30;5.75;;;1.85;;
21987;SDS011;11158;53.404;-1.510;2023-03-11T11:40:58;6.00;;;2.40;;
21987;SDS011;11158;53.404;-1.510;2023-03-11T11:49:19;3.00;;;1.55;;
21987;SDS011;11158;53.404;-1.510;2023-03-11T11:54:44;2.00;;;1.52;;
21987;SDS011;11158;53.404;-1.510;2023-03-11T11:57:41;5.10;;;1.27;;
21987;SDS011;11158;53.404;-1.510;2023-03-11T12:00:50;4.38;;;1.92;;
21987;SDS011;11158;53.404;-1.510;2023-03-11T12:03:10;3.50;;;1.65;;
21987;SDS011;11158;53.404;-1.510;2023-03-11T12:06:03;3.40;;;1.42;;
21987;SDS011;11158;53.404;-1.510;2023-03-11T12:11:36;7.22;;;2.25;;
21987;SDS011;11158;53.404;-1.510;2023-03-11T12:24:08;3.80;;;1.40;;
21987;SDS011;11158;53.404;-1.510;2023-03-11T12:26:45;3.88;;;1.70;;
21987;SDS011;11158;53.404;-1.510;2023-03-11T12:29:23;2.13;;;1.40;;
21987;SDS011;11158;53.404;-1.510;2023-03-11T12:31:54;3.65;;;1.40;;
21987;SDS011;11158;53.404;-1.510;2023-03-11T12:34:21;3.85;;;1.55;;
21987;SDS011;11158;53.404;-1.510;2023-03-11T12:36:49;3.40;;;1.63;;
21987;SDS011;11158;53.404;-1.510;2023-03-11T12:41:46;5.40;;;1.80;;
21987;SDS011;11158;53.404;-1.510;2023-03-11T12:44:28;2.63;;;1.70;;
21987;SDS011;11158;53.404;-1.510;2023-03-11T12:46:59;4.28;;;1.63;;
21987;SDS011;11158;53.404;-1.510;2023-03-11T12:49:27;2.78;;;1.63;;
21987;SDS011;11158;53.404;-1.510;2023-03-11T12:54:36;4.35;;;1.77;;
21987;SDS011;11158;53.404;-1.510;2023-03-11T13:16:47;3.50;;;2.20;;
21987;SDS011;11158;53.404;-1.510;2023-03-11T13:19:35;6.82;;;2.42;;
21987;SDS011;11158;53.404;-1.510;2023-03-11T13:22:04;5.80;;;2.40;;
21987;SDS011;11158;53.404;-1.510;2023-03-11T13:24:49;5.65;;;2.33;;
21987;SDS011;11158;53.404;-1.510;2023-03-11T13:27:27;4.97;;;2.45;;
21987;SDS011;11158;53.404;-1.510;2023-03-11T13:30:05;8.18;;;2.95;;
21987;SDS011;11158;53.404;-1.510;2023-03-11T13:40:53;5.50;;;2.20;;
21987;SDS011;11158;53.404;-1.510;2023-03-11T13:43:21;5.78;;;2.75;;
21987;SDS011;11158;53.404;-1.510;2023-03-11T13:45:52;6.30;;;2.78;;
21987;SDS011;11158;53.404;-1.510;2023-03-11T13:53:49;5.78;;;2.42;;
21987;SDS011;11158;53.404;-1.510;2023-03-11T13:56:24;5.73;;;2.70;;
21987;SDS011;11158;53.404;-1.510;2023-03-11T14:01:17;5.75;;;2.97;;
21987;SDS011;11158;53.404;-1.510;2023-03-11T14:03:44;8.00;;;3.10;;
21987;SDS011;11158;53.404;-1.510;2023-03-11T14:06:12;7.15;;;2.33;;
21987;SDS011;11158;53.404;-1.510;2023-03-11T14:08:40;7.53;;;2.85;;
21987;SDS011;11158;53.404;-1.510;2023-03-11T14:16:07;3.28;;;2.30;;
21987;SDS011;11158;53.404;-1.510;2023-03-11T14:18:35;5.45;;;2.38;;
21987;SDS011;11158;53.404;-1.510;2023-03-11T14:21:04;5.40;;;2.25;;
21987;SDS011;11158;53.404;-1.510;2023-03-11T14:23:38;9.40;;;2.65;;
21987;SDS011;11158;53.404;-1.510;2023-03-11T14:26:07;8.77;;;2.30;;
21987;SDS011;11158;53.404;-1.510;2023-03-11T14:28:39;4.80;;;2.53;;
21987;SDS011;11158;53.404;-1.510;2023-03-11T14:31:18;6.38;;;2.85;;
21987;SDS011;11158;53.404;-1.510;2023-03-11T14:34:10;3.63;;;2.13;;
21987;SDS011;11158;53.404;-1.510;2023-03-11T14:39:24;4.57;;;2.40;;
21987;SDS011;11158;53.404;-1.510;2023-03-11T14:44:33;4.88;;;2.13;;
21987;SDS011;11158;53.404;-1.510;2023-03-11T14:47:07;7.00;;;2.50;;
21987;SDS011;11158;53.404;-1.510;2023-03-11T14:49:33;6.22;;;3.08;;
21987;SDS011;11158;53.404;-1.510;2023-03-11T14:52:01;2.75;;;2.30;;
21987;SDS011;11158;53.404;-1.510;2023-03-11T14:54:34;6.45;;;2.33;;
21987;SDS011;11158;53.404;-1.510;2023-03-11T14:57:18;7.78;;;2.05;;
21987;SDS011;11158;53.404;-1.510;2023-03-11T14:59:51;5.88;;;2.05;;
21987;SDS011;11158;53.404;-1.510;2023-03-11T15:05:12;8.95;;;2.08;;
21987;SDS011;11158;53.404;-1.510;2023-03-11T15:07:44;3.92;;;2.10;;
21987;SDS011;11158;53.404;-1.510;2023-03-11T15:10:11;4.90;;;2.15;;
21987;SDS011;11158;53.404;-1.510;2023-03-11T15:12:41;6.10;;;2.20;;
21987;SDS011;11158;53.404;-1.510;2023-03-11T15:15:27;4.63;;;2.20;;
21987;SDS011;11158;53.404;-1.510;2023-03-11T15:17:54;4.53;;;2.00;;
21987;SDS011;11158;53.404;-1.510;2023-03-11T15:20:25;4.25;;;1.90;;
21987;SDS011;11158;53.404;-1.510;2023-03-11T15:22:59;5.15;;;2.28;;
21987;SDS011;11158;53.404;-1.510;2023-03-11T15:25:28;4.43;;;2.60;;
21987;SDS011;11158;53.404;-1.510;2023-03-11T15:27:56;4.68;;;3.00;;
21987;SDS011;11158;53.404;-1.510;2023-03-11T15:30:23;5.18;;;2.30;;
21987;SDS011;11158;53.404;-1.510;2023-03-11T15:32:50;4.32;;;2.30;;
21987;SDS011;11158;53.404;-1.510;2023-03-11T15:35:18;5.68;;;2.60;;
21987;SDS011;11158;53.404;-1.510;2023-03-11T15:38:10;5.93;;;2.88;;
21987;SDS011;11158;53.404;-1.510;2023-03-11T15:40:52;7.18;;;3.13;;
21987;SDS011;11158;53.404;-1.510;2023-03-11T15:43:26;3.28;;;2.30;;
21987;SDS011;11158;53.404;-1.510;2023-03-11T15:45:58;7.43;;;2.08;;
21987;SDS011;11158;53.404;-1.510;2023-03-11T15:48:25;4.20;;;2.30;;
21987;SDS011;11158;53.404;-1.510;2023-03-11T15:50:54;3.30;;;2.15;;
21987;SDS011;11158;53.404;-1.510;2023-03-11T15:53:21;5.43;;;2.08;;
21987;SDS011;11158;53.404;-1.510;2023-03-11T15:56:02;4.95;;;2.45;;
21987;SDS011;11158;53.404;-1.510;2023-03-11T15:58:36;6.25;;;1.73;;
21987;SDS011;11158;53.404;-1.510;2023-03-11T16:01:02;4.45;;;1.98;;
21987;SDS011;11158;53.404;-1.510;2023-03-11T16:03:28;3.72;;;2.28;;
21987;SDS011;11158;53.404;-1.510;2023-03-11T16:05:53;4.07;;;2.65;;
21987;SDS011;11158;53.404;-1.510;2023-03-11T16:08:19;3.72;;;2.42;;
21987;SDS011;11158;53.404;-1.510;2023-03-11T16:10:44;5.50;;;2.83;;
21987;SDS011;11158;53.404;-1.510;2023-03-11T16:13:14;6.47;;;3.00;;
21987;SDS011;11158;53.404;-1.510;2023-03-11T16:15:40;9.40;;;3.40;;
21987;SDS011;11158;53.404;-1.510;2023-03-11T16:18:07;7.45;;;3.33;;
21987;SDS011;11158;53.404;-1.510;2023-03-11T16:23:05;4.80;;;3.28;;
21987;SDS011;11158;53.404;-1.510;2023-03-11T16:25:37;5.20;;;2.90;;
21987;SDS011;11158;53.404;-1.510;2023-03-11T16:28:05;7.80;;;4.20;;
21987;SDS011;11158;53.404;-1.510;2023-03-11T16:30:32;4.40;;;2.90;;
21987;SDS011;11158;53.404;-1.510;2023-03-11T16:32:59;5.68;;;2.65;;
21987;SDS011;11158;53.404;-1.510;2023-03-11T16:35:25;5.03;;;3.20;;
21987;SDS011;11158;53.404;-1.510;2023-03-11T16:37:51;6.18;;;3.00;;
21987;SDS011;11158;53.404;-1.510;2023-03-11T16:40:19;5.60;;;3.50;;
21987;SDS011;11158;53.404;-1.510;2023-03-11T16:42:46;9.55;;;4.15;;
21987;SDS011;11158;53.404;-1.510;2023-03-11T16:45:13;4.80;;;3.10;;
21987;SDS011;11158;53.404;-1.510;2023-03-11T16:47:41;8.02;;;3.90;;
21987;SDS011;11158;53.404;-1.510;2023-03-11T16:50:07;6.50;;;3.35;;
21987;SDS011;11158;53.404;-1.510;2023-03-11T16:52:33;7.22;;;4.00;;